Time;durP1;ratioP1;P1;durP2;ratioP2;P2;SDS_P1;SDS_P2;PMS_P1;PMS_P2;Temp;Humidity;BMP_temperature;BMP_pressure;BME280_temperature;BME280_humidity;BME280_pressure;Samples;Min_cycle;Max_cycle;Signal;HPM_P1;HPM_P2
2022/01/17 00:01:30;;;;;;;75.10;34.55;;;3.70;99.90;;;;;;5033615;28;20032;-85
2022/01/17 00:03:56;;;;;;;67.28;33.50;;;3.70;99.90;;;;;;5032476;28;20025;-82
2022/01/17 00:06:22;;;;;;;69.32;34.25;;;3.70;99.90;;;;;;5032195;28;20109;-85
2022/01/17 00:08:49;;;;;;;74.75;36.95;;;3.70;99.90;;;;;;5033021;28;20045;-84
2022/01/17 00:11:16;;;;;;;71.70;36.30;;;3.70;99.90;;;;;;5032241;28;20055;-85
2022/01/17 00:13:46;;;;;;;68.13;35.45;;;3.70;99.90;;;;;;5030996;28;20037;-84
2022/01/17 00:16:14;;;;;;;66.93;35.22;;;3.70;99.90;;;;;;5032299;28;20029;-82
2022/01/17 00:21:09;;;;;;;63.15;32.42;;;3.80;99.90;;;;;;5032217;28;20021;-85
2022/01/17 00:23:34;;;;;;;59.38;32.97;;;3.90;99.90;;;;;;5032320;28;20021;-83
2022/01/17 00:26:00;;;;;;;57.00;31.40;;;3.90;99.90;;;;;;5032775;28;20030;-83
2022/01/17 00:28:26;;;;;;;61.83;33.40;;;3.90;99.90;;;;;;5032150;28;20109;-85
2022/01/17 00:30:52;;;;;;;60.90;31.70;;;3.90;99.90;;;;;;5031868;28;20394;-82
2022/01/17 00:33:17;;;;;;;56.97;30.70;;;3.90;99.90;;;;;;5032028;28;20022;-82
2022/01/17 00:35:43;;;;;;;67.95;36.47;;;4.00;99.90;;;;;;5031545;28;20049;-82
2022/01/17 00:38:12;;;;;;;62.03;32.35;;;4.00;99.90;;;;;;5031581;28;20537;-82
2022/01/17 00:40:41;;;;;;;58.97;30.90;;;4.00;99.90;;;;;;5033821;28;20072;-82
2022/01/17 00:43:08;;;;;;;57.85;32.10;;;4.00;99.90;;;;;;5031821;28;20036;-85
2022/01/17 00:45:37;;;;;;;68.65;36.50;;;4.00;99.90;;;;;;5031919;28;20138;-83
2022/01/17 00:48:03;;;;;;;50.10;29.20;;;4.00;99.90;;;;;;5030334;28;20056;-86
2022/01/17 00:50:29;;;;;;;56.55;30.02;;;4.00;99.90;;;;;;5032460;28;20065;-83
2022/01/17 00:52:55;;;;;;;50.83;28.48;;;4.00;99.90;;;;;;5029809;28;20116;-85
2022/01/17 00:55:21;;;;;;;56.17;30.70;;;4.10;99.90;;;;;;5031616;28;20091;-83
2022/01/17 00:57:46;;;;;;;60.50;31.75;;;4.10;99.90;;;;;;5031450;28;20116;-83
2022/01/17 01:00:14;;;;;;;57.05;30.15;;;4.10;99.90;;;;;;5031427;28;20105;-85
2022/01/17 01:02:40;;;;;;;50.22;27.98;;;4.10;99.90;;;;;;5031560;28;20139;-83
2022/01/17 01:05:07;;;;;;;53.15;29.95;;;4.20;99.90;;;;;;5030074;28;20549;-83
2022/01/17 01:07:32;;;;;;;51.50;28.75;;;4.20;99.90;;;;;;5030909;28;20036;-82
2022/01/17 01:10:10;;;;;;;47.47;27.65;;;4.20;99.90;;;;;;5031176;28;20025;-83
2022/01/17 01:12:46;;;;;;;47.45;25.90;;;4.10;99.90;;;;;;5031247;28;20040;-83
2022/01/17 01:15:19;;;;;;;52.65;28.02;;;4.10;99.90;;;;;;5031195;28;20021;-85
2022/01/17 01:17:54;;;;;;;45.10;26.33;;;4.10;99.90;;;;;;5031219;28;20451;-83
2022/01/17 01:28:40;;;;;;;43.25;24.52;;;4.10;99.90;;;;;;5030811;28;20032;-86
2022/01/17 01:31:12;;;;;;;47.85;26.45;;;4.10;99.90;;;;;;5030992;28;20108;-85
2022/01/17 01:33:41;;;;;;;43.42;25.50;;;4.10;99.90;;;;;;5030968;28;20196;-85
2022/01/17 01:36:22;;;;;;;51.30;27.15;;;4.20;99.90;;;;;;5030563;28;20041;-85
2022/01/17 01:38:48;;;;;;;51.45;26.58;;;4.20;99.90;;;;;;5030829;28;20514;-85
2022/01/17 01:41:14;;;;;;;54.35;26.38;;;4.20;99.90;;;;;;5031754;28;20022;-85
2022/01/17 01:43:39;;;;;;;59.97;29.42;;;4.20;99.90;;;;;;5030715;28;20409;-83
2022/01/17 01:46:05;;;;;;;65.68;32.40;;;4.20;99.90;;;;;;5030505;28;20025;-83
2022/01/17 01:48:35;;;;;;;72.38;34.03;;;4.30;99.90;;;;;;5029295;28;20104;-83
2022/01/17 01:51:01;;;;;;;81.15;36.92;;;4.30;99.90;;;;;;5030505;28;20073;-83
2022/01/17 01:53:27;;;;;;;83.03;38.78;;;4.30;99.90;;;;;;5045498;28;20059;-83
2022/01/17 01:55:57;;;;;;;80.18;37.13;;;4.30;99.90;;;;;;5029018;28;20048;-85
2022/01/17 01:58:24;;;;;;;80.65;37.78;;;4.30;99.90;;;;;;5030475;28;20025;-83
2022/01/17 02:00:50;;;;;;;83.40;35.90;;;4.30;99.90;;;;;;5030780;28;20029;-83
2022/01/17 02:03:16;;;;;;;84.10;36.13;;;4.30;99.90;;;;;;5031000;28;20513;-83
2022/01/17 02:05:45;;;;;;;81.93;32.78;;;4.30;99.90;;;;;;5032037;28;20052;-82
2022/01/17 02:08:11;;;;;;;97.25;35.10;;;4.20;99.90;;;;;;5032827;28;20036;-82
2022/01/17 02:10:37;;;;;;;92.15;33.17;;;4.20;99.90;;;;;;5031603;28;20036;-83
2022/01/17 02:13:03;;;;;;;108.50;35.47;;;4.20;99.90;;;;;;5034476;28;20025;-83
2022/01/17 02:15:29;;;;;;;76.72;32.72;;;4.20;99.90;;;;;;5031682;28;20048;-82
2022/01/17 02:17:55;;;;;;;80.40;32.10;;;4.10;99.90;;;;;;5030121;28;20029;-83
2022/01/17 02:20:45;;;;;;;89.47;32.30;;;4.20;99.90;;;;;;5030500;28;20433;-82
2022/01/17 02:23:14;;;;;;;81.80;33.10;;;4.30;99.90;;;;;;5030275;28;20056;-83
2022/01/17 02:25:39;;;;;;;107.38;35.17;;;4.20;99.90;;;;;;5031429;28;20479;-85
2022/01/17 02:28:05;;;;;;;85.00;33.63;;;4.30;99.90;;;;;;5029927;28;20025;-83
2022/01/17 02:30:32;;;;;;;453.77;56.83;;;4.30;99.90;;;;;;5030174;28;20122;-82
2022/01/17 02:33:01;;;;;;;89.15;33.67;;;4.30;99.90;;;;;;5029850;28;20018;-83
2022/01/17 02:35:27;;;;;;;88.75;34.08;;;4.30;99.90;;;;;;5029678;28;20068;-83
2022/01/17 02:37:53;;;;;;;97.93;34.05;;;4.30;99.90;;;;;;5029466;28;20029;-82
2022/01/17 02:40:20;;;;;;;91.05;33.50;;;4.30;99.90;;;;;;5029741;28;20363;-82
2022/01/17 02:42:55;;;;;;;79.07;33.60;;;4.30;99.90;;;;;;5028480;28;20025;-83
2022/01/17 02:45:37;;;;;;;97.70;34.78;;;4.30;99.90;;;;;;5030122;28;20079;-83
2022/01/17 02:48:09;;;;;;;113.25;33.90;;;4.20;99.90;;;;;;5030073;28;20109;-85
2022/01/17 02:50:36;;;;;;;114.75;34.10;;;4.20;99.90;;;;;;5029954;28;20021;-83
2022/01/17 02:53:04;;;;;;;88.25;33.78;;;4.20;99.90;;;;;;5029502;28;20025;-83
2022/01/17 02:55:31;;;;;;;91.03;32.35;;;4.20;99.90;;;;;;5028285;28;20029;-83
2022/01/17 02:57:57;;;;;;;102.28;32.78;;;4.20;99.90;;;;;;5029509;28;20115;-82
2022/01/17 03:00:24;;;;;;;120.18;32.65;;;4.20;99.90;;;;;;5029714;28;20030;-82
2022/01/17 03:02:49;;;;;;;83.85;31.88;;;4.20;99.90;;;;;;5029673;28;20022;-83
2022/01/17 03:05:16;;;;;;;87.97;32.42;;;4.20;99.90;;;;;;5033339;28;20037;-83
2022/01/17 03:07:45;;;;;;;82.63;30.95;;;4.10;99.90;;;;;;5032031;28;20386;-83
2022/01/17 03:10:32;;;;;;;82.50;31.45;;;4.10;99.90;;;;;;5032304;28;20060;-83
2022/01/17 03:13:04;;;;;;;117.60;33.45;;;4.10;99.90;;;;;;5033436;28;20030;-83
2022/01/17 03:15:30;;;;;;;99.00;33.77;;;4.10;99.90;;;;;;5033428;28;20025;-85
2022/01/17 03:17:56;;;;;;;89.93;33.33;;;4.10;99.90;;;;;;5033551;28;20037;-86
2022/01/17 03:20:22;;;;;;;128.50;33.28;;;4.10;99.90;;;;;;5033428;28;20221;-85
2022/01/17 03:22:48;;;;;;;91.03;32.72;;;4.10;99.90;;;;;;5032976;28;20026;-83
2022/01/17 03:25:13;;;;;;;113.63;34.70;;;4.10;99.90;;;;;;5031978;28;20022;-83
2022/01/17 03:27:39;;;;;;;92.78;34.38;;;4.10;99.90;;;;;;5031882;28;20025;-85
2022/01/17 03:30:06;;;;;;;141.43;35.30;;;4.10;99.90;;;;;;5033068;28;20107;-84
2022/01/17 03:32:31;;;;;;;96.28;34.13;;;4.10;99.90;;;;;;5033595;28;20091;-85
2022/01/17 03:34:57;;;;;;;103.93;35.63;;;4.10;99.90;;;;;;5032790;28;20053;-85
2022/01/17 03:37:23;;;;;;;117.50;37.67;;;4.10;99.90;;;;;;5033597;28;20042;-84
2022/01/17 03:39:49;;;;;;;119.97;37.03;;;4.10;99.90;;;;;;5032927;28;20418;-85
2022/01/17 03:42:15;;;;;;;105.70;35.80;;;4.10;99.90;;;;;;5033333;28;20072;-84
2022/01/17 03:44:40;;;;;;;124.28;39.55;;;4.10;99.90;;;;;;5033040;28;20017;-84
2022/01/17 03:47:06;;;;;;;124.57;38.10;;;4.20;99.90;;;;;;5032823;28;20034;-85
2022/01/17 03:49:32;;;;;;;99.57;37.95;;;4.20;99.90;;;;;;5032814;28;20436;-84
2022/01/17 03:51:58;;;;;;;114.65;35.42;;;4.20;99.90;;;;;;5033843;28;20060;-85
2022/01/17 03:54:23;;;;;;;147.40;37.30;;;4.40;99.90;;;;;;5032610;28;20026;-85
2022/01/17 03:56:49;;;;;;;105.72;35.42;;;4.40;99.90;;;;;;5032633;28;20387;-85
2022/01/17 03:59:15;;;;;;;85.05;33.45;;;4.30;99.90;;;;;;5032652;28;20113;-84
2022/01/17 04:01:40;;;;;;;98.10;32.67;;;4.30;99.90;;;;;;5032550;28;20049;-84
2022/01/17 04:04:06;;;;;;;83.93;32.60;;;4.40;99.90;;;;;;5031233;28;20414;-84
2022/01/17 04:06:33;;;;;;;95.32;34.53;;;4.50;99.90;;;;;;5030839;28;20061;-85
2022/01/17 04:08:58;;;;;;;86.15;32.97;;;4.50;99.90;;;;;;5032300;28;20026;-85
2022/01/17 04:11:24;;;;;;;136.43;35.65;;;4.40;99.90;;;;;;5032533;28;20029;-85
2022/01/17 04:13:50;;;;;;;76.72;31.83;;;4.40;99.90;;;;;;5032425;28;20541;-85
2022/01/17 04:16:16;;;;;;;101.68;35.17;;;4.40;99.90;;;;;;5031413;28;20116;-85
2022/01/17 04:18:42;;;;;;;88.00;34.47;;;4.30;99.90;;;;;;5032378;28;20065;-84
2022/01/17 04:21:08;;;;;;;92.55;34.40;;;4.30;99.90;;;;;;5035122;28;20520;-84
2022/01/17 04:23:34;;;;;;;89.88;33.80;;;4.40;99.90;;;;;;5032020;28;20215;-84
2022/01/17 04:26:00;;;;;;;119.25;34.55;;;4.40;99.90;;;;;;5030741;28;20044;-84
2022/01/17 04:28:26;;;;;;;151.43;34.20;;;4.30;99.90;;;;;;5032025;28;20075;-85
2022/01/17 04:30:52;;;;;;;192.13;37.67;;;4.30;99.90;;;;;;5031996;28;20482;-84
2022/01/17 04:33:17;;;;;;;99.97;33.05;;;4.30;99.90;;;;;;5031737;28;20013;-84
2022/01/17 04:35:44;;;;;;;102.63;30.20;;;4.20;99.90;;;;;;5031909;28;20187;-84
2022/01/17 04:38:17;;;;;;;80.82;28.63;;;4.20;99.90;;;;;;5031723;28;20037;-84
2022/01/17 04:40:46;;;;;;;81.80;27.77;;;4.20;99.90;;;;;;5032084;28;20025;-84
2022/01/17 04:43:44;;;;;;;98.05;29.85;;;4.20;99.90;;;;;;5031846;28;20172;-85
2022/01/17 04:45:59;;;;;;;100.43;26.73;;;4.30;99.90;;;;;;5031419;28;20033;-85
2022/01/17 04:48:26;;;;;;;155.52;29.58;;;4.20;99.90;;;;;;5031841;28;20425;-84
2022/01/17 04:50:52;;;;;;;114.40;26.45;;;4.20;99.90;;;;;;5031762;28;20493;-85
2022/01/17 04:53:20;;;;;;;106.20;26.52;;;4.20;99.90;;;;;;5030185;28;20397;-85
2022/01/17 04:55:46;;;;;;;75.10;24.05;;;4.10;99.90;;;;;;5031546;28;20060;-85
2022/01/17 04:58:12;;;;;;;86.68;25.42;;;4.10;99.90;;;;;;5036862;28;20045;-85
2022/01/17 05:00:45;;;;;;;103.00;26.13;;;4.10;99.90;;;;;;5031506;28;20044;-85
2022/01/17 05:03:12;;;;;;;75.13;25.58;;;4.20;99.90;;;;;;5031444;28;20018;-85
2022/01/17 05:05:38;;;;;;;126.65;29.52;;;4.10;99.90;;;;;;5031269;28;20100;-84
2022/01/17 05:08:04;;;;;;;81.85;25.70;;;4.10;99.90;;;;;;5030888;28;20105;-85
2022/01/17 05:10:29;;;;;;;81.15;26.35;;;4.10;99.90;;;;;;5030140;28;20022;-84
2022/01/17 05:12:55;;;;;;;71.72;25.73;;;4.10;99.90;;;;;;5031528;28;20021;-85
2022/01/17 05:18:11;;;;;;;64.72;25.13;;;4.10;99.90;;;;;;5031263;28;20521;-85
2022/01/17 05:20:41;;;;;;;90.18;24.75;;;4.20;99.90;;;;;;5031004;28;20022;-85
2022/01/17 05:23:08;;;;;;;65.15;23.00;;;4.20;99.90;;;;;;5030785;28;20065;-85
2022/01/17 05:25:34;;;;;;;146.13;27.05;;;4.10;99.90;;;;;;5031007;28;20484;-85
2022/01/17 05:28:00;;;;;;;157.98;26.17;;;4.20;99.90;;;;;;5030604;28;20029;-84
2022/01/17 05:30:26;;;;;;;102.57;23.20;;;4.20;99.90;;;;;;5030707;28;20078;-85
2022/01/17 05:32:52;;;;;;;103.68;21.30;;;4.20;99.90;;;;;;5030880;28;20025;-85
2022/01/17 05:35:19;;;;;;;168.63;24.35;;;4.20;99.90;;;;;;5030693;28;20042;-85
2022/01/17 05:37:54;;;;;;;55.70;18.63;;;4.20;99.90;;;;;;5028684;28;20461;-85
2022/01/17 05:40:19;;;;;;;136.68;23.88;;;4.10;99.90;;;;;;5029524;28;20036;-85
2022/01/17 05:42:45;;;;;;;165.70;24.40;;;4.20;99.90;;;;;;5030660;28;20048;-85
2022/01/17 05:45:12;;;;;;;102.28;21.38;;;4.20;99.90;;;;;;5031570;28;20438;-84
2022/01/17 05:47:38;;;;;;;133.63;23.35;;;4.20;99.90;;;;;;5030803;28;20025;-84
2022/01/17 05:50:06;;;;;;;56.17;21.63;;;4.20;99.90;;;;;;5030485;28;20022;-85
2022/01/17 05:52:32;;;;;;;112.22;22.33;;;4.20;99.90;;;;;;5030331;28;20052;-85
2022/01/17 05:54:59;;;;;;;102.00;23.27;;;4.20;99.90;;;;;;5030876;28;20053;-85
2022/01/17 05:57:25;;;;;;;129.40;25.02;;;4.20;99.90;;;;;;5030340;28;20114;-84
2022/01/17 05:59:51;;;;;;;52.63;21.00;;;4.20;99.90;;;;;;5030247;28;20482;-84
2022/01/17 06:02:17;;;;;;;170.70;25.77;;;4.20;99.90;;;;;;5030633;28;20079;-85
2022/01/17 06:04:43;;;;;;;54.45;20.65;;;4.30;99.90;;;;;;5030688;28;20385;-85
2022/01/17 06:07:08;;;;;;;58.70;21.27;;;4.30;99.90;;;;;;5030791;28;20039;-85
2022/01/17 06:09:35;;;;;;;43.53;21.88;;;4.30;99.90;;;;;;5030459;28;20601;-86
2022/01/17 06:12:01;;;;;;;55.47;20.92;;;4.30;99.90;;;;;;5030617;28;20021;-85
2022/01/17 06:14:27;;;;;;;49.10;21.42;;;4.30;99.90;;;;;;5030050;28;20063;-85
2022/01/17 06:16:53;;;;;;;80.78;22.30;;;4.30;99.90;;;;;;5029929;28;20037;-85
2022/01/17 06:19:19;;;;;;;53.45;21.98;;;4.30;99.90;;;;;;5030063;28;20096;-85
2022/01/17 06:21:45;;;;;;;62.53;23.27;;;4.30;99.90;;;;;;5029715;28;20030;-85
2022/01/17 06:24:11;;;;;;;119.82;24.75;;;4.20;99.90;;;;;;5030265;28;20486;-85
2022/01/17 06:26:39;;;;;;;76.60;23.08;;;4.30;99.90;;;;;;5030171;28;20042;-85
2022/01/17 06:29:07;;;;;;;56.58;21.30;;;4.30;99.90;;;;;;5028740;28;20056;-85
2022/01/17 06:31:33;;;;;;;70.13;22.02;;;4.30;99.90;;;;;;5030186;28;20414;-85
2022/01/17 06:33:59;;;;;;;162.95;27.95;;;4.30;99.90;;;;;;5029333;28;20076;-85
2022/01/17 06:36:25;;;;;;;64.43;22.05;;;4.40;99.90;;;;;;5029990;28;20041;-85
2022/01/17 06:38:51;;;;;;;59.95;22.40;;;4.30;99.90;;;;;;5030950;28;20021;-85
2022/01/17 06:41:17;;;;;;;63.17;23.25;;;4.30;99.90;;;;;;5032754;28;20021;-86
2022/01/17 06:43:44;;;;;;;113.07;25.30;;;4.30;99.90;;;;;;5034726;28;20538;-86
2022/01/17 06:46:10;;;;;;;61.63;21.77;;;4.40;99.90;;;;;;5032989;28;20083;-86
2022/01/17 06:48:36;;;;;;;52.40;22.85;;;4.30;99.90;;;;;;5033482;28;20018;-86
2022/01/17 06:51:02;;;;;;;60.92;23.60;;;4.40;99.90;;;;;;5033185;28;20026;-86
2022/01/17 06:53:28;;;;;;;69.88;25.95;;;4.40;99.90;;;;;;5033374;28;20017;-86
2022/01/17 06:55:54;;;;;;;109.57;28.55;;;4.40;99.90;;;;;;5033116;28;20532;-86
2022/01/17 06:58:20;;;;;;;60.55;25.33;;;4.40;99.90;;;;;;5033122;28;20524;-86
2022/01/17 07:00:46;;;;;;;69.15;25.00;;;4.40;99.90;;;;;;5031757;28;20022;-86
2022/01/17 07:03:12;;;;;;;71.82;28.05;;;4.40;99.90;;;;;;5033060;28;20019;-86
2022/01/17 07:05:38;;;;;;;87.72;28.75;;;4.40;99.90;;;;;;5033126;28;20018;-86
2022/01/17 07:08:03;;;;;;;66.32;27.67;;;4.30;99.90;;;;;;5032527;28;20033;-86
2022/01/17 07:10:29;;;;;;;66.20;27.58;;;4.40;99.90;;;;;;5032811;28;20017;-86
2022/01/17 07:12:56;;;;;;;58.28;26.95;;;4.40;99.90;;;;;;5034288;28;20517;-86
2022/01/17 07:15:22;;;;;;;73.00;27.40;;;4.40;99.90;;;;;;5034254;28;20028;-86
2022/01/17 07:17:47;;;;;;;60.60;27.77;;;4.40;99.90;;;;;;5033399;28;20033;-86
2022/01/17 07:20:13;;;;;;;76.30;27.50;;;4.40;99.90;;;;;;5033499;28;20161;-86
2022/01/17 07:22:39;;;;;;;55.63;25.52;;;4.40;99.90;;;;;;5033405;28;20029;-86
2022/01/17 07:25:05;;;;;;;72.18;26.67;;;4.40;99.90;;;;;;5036847;28;20053;-86
2022/01/17 07:27:31;;;;;;;56.42;24.83;;;4.40;99.90;;;;;;5035060;28;20082;-84
2022/01/17 07:29:57;;;;;;;57.45;25.88;;;4.40;99.90;;;;;;5036275;28;20473;-85
2022/01/17 07:32:24;;;;;;;64.47;27.70;;;4.50;99.90;;;;;;5033846;28;20029;-84
2022/01/17 07:34:50;;;;;;;80.10;27.08;;;4.50;99.90;;;;;;5032906;28;20119;-85
2022/01/17 07:37:16;;;;;;;55.67;25.63;;;4.50;99.90;;;;;;5037319;28;20033;-85
2022/01/17 07:39:43;;;;;;;57.30;25.63;;;4.50;99.90;;;;;;5033030;28;20036;-87
2022/01/17 07:42:10;;;;;;;59.33;25.13;;;4.50;99.90;;;;;;5032970;28;20080;-87
2022/01/17 07:44:37;;;;;;;52.35;25.05;;;4.50;99.90;;;;;;5032936;28;20116;-87
2022/01/17 07:47:05;;;;;;;48.88;23.98;;;4.60;99.90;;;;;;5032670;28;20025;-86
2022/01/17 07:49:30;;;;;;;49.72;23.15;;;4.60;99.90;;;;;;5031302;28;20028;-87
2022/01/17 07:52:03;;;;;;;45.28;22.98;;;4.70;99.90;;;;;;5031023;28;20025;-87
2022/01/17 07:54:31;;;;;;;75.82;23.88;;;4.70;99.90;;;;;;5032709;28;20080;-87
2022/01/17 07:56:59;;;;;;;80.53;24.80;;;4.70;99.90;;;;;;5031245;28;20036;-87
2022/01/17 07:59:25;;;;;;;47.50;22.88;;;4.70;99.90;;;;;;5031477;28;20398;-87
2022/01/17 08:01:51;;;;;;;75.90;22.00;;;4.70;99.90;;;;;;5032672;28;20025;-87
2022/01/17 08:04:17;;;;;;;45.15;20.20;;;4.60;99.90;;;;;;5032638;28;20070;-87
2022/01/17 08:06:46;;;;;;;59.05;19.65;;;4.50;99.90;;;;;;5032183;28;20021;-87
2022/01/17 08:09:18;;;;;;;76.32;26.77;;;4.40;99.90;;;;;;5032865;28;20025;-87
2022/01/17 08:11:44;;;;;;;66.25;19.80;;;4.40;99.90;;;;;;5032176;28;20045;-87
2022/01/17 08:14:09;;;;;;;68.30;18.83;;;4.40;99.90;;;;;;5030787;28;20506;-87
2022/01/17 08:16:35;;;;;;;69.65;18.83;;;4.40;99.90;;;;;;5031174;28;20199;-87
2022/01/17 08:19:01;;;;;;;61.72;18.35;;;4.30;99.90;;;;;;5030967;28;20367;-87
2022/01/17 08:21:27;;;;;;;60.63;18.33;;;4.30;99.90;;;;;;5030769;28;20022;-87
2022/01/17 08:23:55;;;;;;;235.90;31.10;;;4.10;99.90;;;;;;5032563;28;20026;-86
2022/01/17 08:26:21;;;;;;;45.92;18.55;;;4.10;99.90;;;;;;5030939;28;20069;-87
2022/01/17 08:28:48;;;;;;;64.32;20.25;;;4.00;99.90;;;;;;5030810;28;20079;-87
2022/01/17 08:31:14;;;;;;;80.93;21.80;;;3.90;99.90;;;;;;5032088;28;20036;-87
2022/01/17 08:33:39;;;;;;;72.75;23.38;;;3.90;99.90;;;;;;5032112;28;20026;-87
2022/01/17 08:36:07;;;;;;;52.60;23.17;;;4.00;99.90;;;;;;5031262;28;20048;-87
2022/01/17 08:38:34;;;;;;;69.53;29.33;;;4.00;99.90;;;;;;5032049;28;20049;-87
2022/01/17 08:41:01;;;;;;;89.45;32.63;;;4.00;99.90;;;;;;5031921;28;20175;-87
2022/01/17 08:43:27;;;;;;;64.50;32.83;;;4.10;99.90;;;;;;5031839;28;20021;-87
2022/01/17 08:45:53;;;;;;;75.20;31.58;;;4.10;99.90;;;;;;5032033;28;20101;-87
2022/01/17 08:48:19;;;;;;;173.90;40.22;;;4.10;99.90;;;;;;5031620;28;20022;-87
2022/01/17 08:50:47;;;;;;;96.00;31.70;;;4.20;99.90;;;;;;5030367;28;20046;-87
2022/01/17 08:53:15;;;;;;;81.03;25.77;;;4.20;99.90;;;;;;5029946;28;20018;-87
2022/01/17 08:55:43;;;;;;;66.15;27.80;;;4.10;99.90;;;;;;5030684;28;20100;-87
2022/01/17 08:58:10;;;;;;;241.73;40.85;;;4.10;99.90;;;;;;5031633;28;20033;-86
2022/01/17 09:00:36;;;;;;;46.63;25.05;;;4.10;99.90;;;;;;5031682;28;20574;-86
2022/01/17 09:03:02;;;;;;;53.95;26.52;;;4.20;99.90;;;;;;5031514;28;20029;-86
2022/01/17 09:05:29;;;;;;;55.17;28.80;;;4.30;99.90;;;;;;5031880;28;20457;-86
2022/01/17 09:07:55;;;;;;;66.25;34.53;;;4.40;99.90;;;;;;5030897;28;20026;-86
2022/01/17 09:10:21;;;;;;;250.35;48.30;;;4.30;99.90;;;;;;5031309;28;20402;-87
2022/01/17 09:12:47;;;;;;;65.13;32.47;;;4.40;99.90;;;;;;5029881;28;20025;-87
2022/01/17 09:15:13;;;;;;;86.03;29.50;;;4.40;99.90;;;;;;5030035;28;20033;-86
2022/01/17 09:17:39;;;;;;;55.58;29.63;;;4.40;99.90;;;;;;5029849;28;20040;-86
2022/01/17 09:20:06;;;;;;;41.65;24.45;;;4.50;99.90;;;;;;5029898;28;20320;-86
2022/01/17 09:22:32;;;;;;;42.97;23.33;;;4.60;99.90;;;;;;5030982;28;20021;-86
2022/01/17 09:24:59;;;;;;;39.72;22.35;;;4.70;99.90;;;;;;5030023;28;20021;-86
2022/01/17 09:27:25;;;;;;;38.90;23.10;;;4.80;99.90;;;;;;5031297;28;20219;-86
2022/01/17 09:29:52;;;;;;;39.65;21.70;;;4.80;99.90;;;;;;5031025;28;20210;-86
2022/01/17 09:32:17;;;;;;;32.45;21.25;;;4.90;99.90;;;;;;5030707;28;20107;-86
2022/01/17 09:34:46;;;;;;;34.83;19.27;;;5.10;99.90;;;;;;5029167;28;20093;-86
2022/01/17 09:37:13;;;;;;;30.05;19.20;;;5.20;99.90;;;;;;5029381;28;20061;-86
2022/01/17 09:39:39;;;;;;;29.38;18.95;;;5.30;99.90;;;;;;5029601;28;20065;-86
2022/01/17 09:42:08;;;;;;;36.17;20.33;;;5.50;99.90;;;;;;5029569;28;20512;-86
2022/01/17 09:44:35;;;;;;;33.47;19.63;;;5.60;99.90;;;;;;5030773;28;20021;-86
2022/01/17 09:47:05;;;;;;;36.30;20.70;;;5.60;99.90;;;;;;5029428;28;20033;-86
2022/01/17 09:49:36;;;;;;;32.40;20.67;;;5.70;99.90;;;;;;5029293;28;20021;-86
2022/01/17 09:52:13;;;;;;;35.50;21.95;;;5.80;99.90;;;;;;5028786;28;20125;-86
2022/01/17 09:54:43;;;;;;;35.40;20.05;;;5.70;99.90;;;;;;5030757;28;20075;-86
2022/01/17 09:57:11;;;;;;;33.75;20.98;;;5.90;99.90;;;;;;5028956;28;20044;-86
2022/01/17 09:59:38;;;;;;;35.83;21.00;;;5.90;99.90;;;;;;5029307;28;20068;-86
2022/01/17 10:02:06;;;;;;;39.33;21.48;;;5.90;99.90;;;;;;5029040;28;20025;-86
2022/01/17 10:04:32;;;;;;;31.85;19.48;;;5.90;99.90;;;;;;5029310;28;20124;-86
2022/01/17 10:06:59;;;;;;;37.15;24.92;;;6.00;99.90;;;;;;5028939;28;20022;-86
2022/01/17 10:09:27;;;;;;;37.28;22.92;;;6.10;99.90;;;;;;5028856;28;20057;-86
2022/01/17 10:12:08;;;;;;;37.33;21.85;;;6.10;99.90;;;;;;5030267;28;20030;-86
2022/01/17 10:14:43;;;;;;;37.35;22.20;;;6.10;99.90;;;;;;5030195;28;20040;-85
2022/01/17 10:17:10;;;;;;;;;;;6.20;99.90;;;;;;5030381;28;20075;-86
2022/01/17 10:19:37;;;;;;;40.33;24.08;;;6.30;99.90;;;;;;5028949;28;19905;-86
2022/01/17 10:22:10;;;;;;;41.95;24.25;;;6.30;99.90;;;;;;5028498;28;20064;-86
2022/01/17 10:35:31;;;;;;;35.72;22.25;;;6.70;99.90;;;;;;5029579;28;20107;-86
2022/01/17 10:37:59;;;;;;;33.65;21.35;;;6.80;99.90;;;;;;5029518;28;20040;-85
2022/01/17 10:40:27;;;;;;;32.83;21.20;;;6.80;99.90;;;;;;5030066;28;20029;-85
2022/01/17 10:42:55;;;;;;;31.02;20.10;;;6.90;99.90;;;;;;5029973;28;20022;-85
2022/01/17 10:45:24;;;;;;;28.35;18.25;;;6.90;99.90;;;;;;5028919;28;20064;-85
2022/01/17 10:47:53;;;;;;;27.48;18.13;;;6.90;99.90;;;;;;5029948;28;20033;-86
2022/01/17 10:50:28;;;;;;;27.60;18.05;;;7.10;99.90;;;;;;5028279;28;20029;-85
2022/01/17 10:52:56;;;;;;;23.90;16.67;;;7.20;99.90;;;;;;5029516;28;20026;-85
2022/01/17 10:55:50;;;;;;;24.30;16.33;;;7.10;99.90;;;;;;5028347;28;20494;-86
2022/01/17 10:58:21;;;;;;;26.93;16.23;;;7.20;99.90;;;;;;5029262;28;20053;-86
2022/01/17 11:00:53;;;;;;;24.30;16.50;;;7.30;99.90;;;;;;5028755;28;20026;-85
2022/01/17 11:03:22;;;;;;;22.88;16.08;;;7.50;99.90;;;;;;5028609;28;20469;-86
2022/01/17 11:05:52;;;;;;;23.73;14.90;;;7.50;99.90;;;;;;5028197;28;20440;-85
2022/01/17 11:08:19;;;;;;;23.02;15.82;;;7.60;99.90;;;;;;5028399;28;20030;-85
2022/01/17 11:10:47;;;;;;;26.15;13.93;;;7.80;99.90;;;;;;5028731;28;20152;-86
2022/01/17 11:13:16;;;;;;;21.02;14.43;;;7.90;99.90;;;;;;5028123;28;20401;-85
2022/01/17 11:15:45;;;;;;;20.23;14.23;;;7.90;99.90;;;;;;5029674;28;20018;-85
2022/01/17 11:18:19;;;;;;;25.02;15.75;;;8.00;99.90;;;;;;5031024;28;20069;-86
2022/01/17 11:20:45;;;;;;;23.13;16.08;;;8.00;99.90;;;;;;5009499;28;20018;-85
2022/01/17 11:23:11;;;;;;;22.08;14.93;;;8.00;99.90;;;;;;5008937;28;20033;-85
2022/01/17 11:25:42;;;;;;;21.13;15.52;;;8.10;99.90;;;;;;5031453;28;20108;-85
2022/01/17 11:28:08;;;;;;;22.38;16.67;;;8.10;99.90;;;;;;5037939;28;20024;-86
2022/01/17 11:30:36;;;;;;;20.88;15.32;;;8.20;99.90;;;;;;5051789;28;20026;-86
2022/01/17 11:33:06;;;;;;;23.45;16.33;;;8.30;99.90;;;;;;5053056;28;20063;-86
2022/01/17 11:35:37;;;;;;;24.63;16.60;;;8.20;99.90;;;;;;5052148;28;20530;-85
2022/01/17 11:38:04;;;;;;;25.20;16.33;;;8.20;99.90;;;;;;5052182;28;20033;-86
2022/01/17 11:40:36;;;;;;;23.45;16.75;;;8.20;99.90;;;;;;5051849;28;20022;-85
2022/01/17 11:43:18;;;;;;;22.77;17.10;;;8.20;99.90;;;;;;5052827;28;20025;-86
2022/01/17 11:45:44;;;;;;;23.65;17.92;;;8.20;99.90;;;;;;5052952;28;20032;-85
2022/01/17 11:48:30;;;;;;;27.42;18.02;;;8.20;99.90;;;;;;5052790;28;20396;-85
2022/01/17 11:50:58;;;;;;;27.27;17.45;;;8.20;99.90;;;;;;5047630;28;20163;-85
2022/01/17 11:53:27;;;;;;;26.20;17.27;;;8.20;99.90;;;;;;5032707;28;20025;-86
2022/01/17 11:55:53;;;;;;;21.38;15.10;;;8.30;99.90;;;;;;5031284;28;20037;-86
2022/01/17 11:58:40;;;;;;;23.10;16.40;;;8.30;99.90;;;;;;5032736;28;20029;-86
2022/01/17 12:01:08;;;;;;;18.33;13.23;;;8.40;99.90;;;;;;5032703;28;20030;-86
2022/01/17 12:03:50;;;;;;;22.83;14.80;;;8.50;99.90;;;;;;5031466;28;20450;-86
2022/01/17 12:06:23;;;;;;;19.33;14.27;;;8.50;99.90;;;;;;5031060;28;20552;-85
2022/01/17 12:09:10;;;;;;;17.98;13.80;;;8.60;99.90;;;;;;5032534;28;20025;-85
2022/01/17 12:11:36;;;;;;;20.73;13.80;;;8.70;99.90;;;;;;5026845;28;20037;-86
2022/01/17 12:14:29;;;;;;;18.23;13.38;;;8.70;99.90;;;;;;5032472;28;20044;-85
2022/01/17 12:17:25;;;;;;;13.98;11.63;;;8.90;99.90;;;;;;5030869;28;20469;-86
2022/01/17 12:20:07;;;;;;;18.02;12.70;;;9.10;99.90;;;;;;5032420;28;20021;-85
2022/01/17 12:22:48;;;;;;;16.23;12.07;;;9.20;99.90;;;;;;5030839;28;20036;-86
2022/01/17 12:25:24;;;;;;;16.38;11.35;;;9.20;99.90;;;;;;5032190;28;20460;-85
2022/01/17 12:27:51;;;;;;;20.63;12.52;;;9.20;99.90;;;;;;5032295;28;20027;-86
2022/01/17 12:30:17;;;;;;;16.60;11.98;;;9.20;99.90;;;;;;5032235;28;20113;-86
2022/01/17 12:32:48;;;;;;;18.48;12.35;;;9.20;99.90;;;;;;5030678;28;20108;-86
2022/01/17 12:35:18;;;;;;;18.80;12.13;;;9.20;99.90;;;;;;5030520;28;20144;-86
2022/01/17 12:37:56;;;;;;;19.67;13.35;;;9.20;99.90;;;;;;5030462;28;20064;-86
2022/01/17 12:40:40;;;;;;;21.25;13.93;;;9.20;99.90;;;;;;5032070;28;20021;-86
2022/01/17 12:43:17;;;;;;;19.77;14.23;;;9.10;99.90;;;;;;5023717;28;20029;-86
2022/01/17 12:45:45;;;;;;;22.17;14.55;;;9.10;99.90;;;;;;5032039;28;20104;-86
2022/01/17 12:48:15;;;;;;;21.58;14.95;;;9.20;99.90;;;;;;5032240;28;20025;-86
2022/01/17 12:50:43;;;;;;;24.23;17.27;;;9.50;99.90;;;;;;5030089;28;20025;-86
2022/01/17 12:53:11;;;;;;;25.25;16.13;;;9.60;99.90;;;;;;5031329;28;20104;-86
2022/01/17 12:55:45;;;;;;;23.58;14.80;;;9.60;99.90;;;;;;5031659;28;20025;-86
2022/01/17 12:58:17;;;;;;;21.35;14.57;;;9.50;99.90;;;;;;5031923;28;20037;-86
2022/01/17 13:00:57;;;;;;;20.97;14.20;;;9.50;99.90;;;;;;5030350;28;20050;-86
2022/01/17 13:03:25;;;;;;;18.17;12.95;;;9.50;99.90;;;;;;5031655;28;20367;-86
2022/01/17 13:05:52;;;;;;;18.23;12.10;;;9.60;99.90;;;;;;5031179;28;20017;-86